DW6345 Murcia ES current weather conditions

sailwx.info

Wind from 058 at 2 knots gusting 5

Air temperature 24.4° C
Dewpoint 16.4° C

Last reported at 2014-Jul-22 22:45 UTC.
Time now 2014-Jul-22 23:12 UTC

Location: N 37°60' W 001°06'.
View on Google Maps.

See reports from other nearby stations

  
Tides and Currents Weather Stations Pressure Air Temp Water Temp Dewpoint Dewpoint Depression Visibility Wind Speed Wind Dir Waves Ship Positions
date/time (UTC)wind fromknots sea level pressurealtimeterstation pressurevisibilityair tempwater tempwave heightnotes
2014-Jul-22 22:45 058 2 gusting 5 24.4
2014-Jul-22 22:25 090 3 gusting 6 25.0
2014-Jul-22 22:14 090 2 gusting 6 25.0
2014-Jul-22 22:05 045 2 gusting 6 25.0
2014-Jul-22 21:55 270 2 gusting 6 25.0
2014-Jul-22 21:45 060 4 gusting 6 25.6
2014-Jul-22 21:35 067 4 gusting 8 25.6
2014-Jul-22 21:25 064 6 gusting 8 25.6
2014-Jul-22 21:15 090 5 gusting 8 26.1
2014-Jul-22 21:05 090 4 gusting 6 26.7
2014-Jul-22 20:55 090 3 gusting 8 26.7
2014-Jul-22 20:35 090 4 gusting 7 27.2
2014-Jul-22 20:25 081 5 gusting 8 27.8
2014-Jul-22 20:15 090 2 gusting 6 27.8
2014-Jul-22 20:05 119 2 gusting 5 28.3
2014-Jul-22 19:55 056 1 gusting 5 28.9
2014-Jul-22 19:45 180 2 gusting 10 29.4
2014-Jul-22 19:35 180 5 gusting 10 29.4
2014-Jul-22 19:25 169 6 gusting 10 30.0
2014-Jul-22 19:15 180 3 gusting 8 30.0
2014-Jul-22 19:05 180 5 gusting 8 30.6
2014-Jul-22 18:55 159 2 gusting 6 31.1
2014-Jul-22 18:45 180 4 gusting 6 31.1
2014-Jul-22 18:35 180 4 gusting 8 31.7
2014-Jul-22 18:25 180 5 gusting 11 31.7
2014-Jul-22 18:15 180 5 gusting 11 32.2
2014-Jul-22 18:05 150 5 gusting 12 32.2
2014-Jul-22 17:55 180 6 gusting 12 32.2
2014-Jul-22 17:45 180 4 gusting 12 32.8
2014-Jul-22 17:25 151 7 gusting 13 32.8
2014-Jul-22 17:05 180 6 gusting 13 33.3
2014-Jul-22 16:55 180 8 gusting 15 33.9
2014-Jul-22 16:45 180 7 gusting 14 33.9
2014-Jul-22 16:35 172 4 gusting 11 33.9
2014-Jul-22 16:25 203 6 gusting 14 33.9
2014-Jul-22 16:15 185 7 gusting 13 33.9
2014-Jul-22 16:05 180 8 gusting 14 33.9
2014-Jul-22 15:55 180 8 gusting 14 33.9
2014-Jul-22 15:45 180 10 gusting 14 34.4
2014-Jul-22 15:35 210 6 gusting 13 34.4
2014-Jul-22 15:25 161 6 gusting 13 33.9
2014-Jul-22 15:15 295 6 gusting 13 33.9
2014-Jul-22 15:05 180 7 gusting 15 33.9
2014-Jul-22 14:55 180 6 gusting 17 34.4
2014-Jul-22 14:45 166 8 gusting 17 34.4
2014-Jul-22 14:35 192 9 gusting 18 34.4
2014-Jul-22 14:25 117 7 gusting 17 33.9
2014-Jul-22 14:15 148 7 gusting 14 34.4
2014-Jul-22 14:05 144 5 gusting 14 33.9
2014-Jul-22 13:55 136 10 gusting 14 33.9
2014-Jul-22 13:45 146 8 gusting 14 33.9
2014-Jul-22 13:35 097 6 gusting 13 33.9
2014-Jul-22 13:25 192 5 gusting 13 33.9
2014-Jul-22 13:15 180 7 gusting 17 33.9
2014-Jul-22 13:05 164 8 gusting 17 33.9
2014-Jul-22 12:55 184 7 gusting 17 33.9
2014-Jul-22 12:45 145 7 gusting 17 33.3
2014-Jul-22 12:35 115 2 gusting 11 33.3
2014-Jul-22 12:25 180 7 gusting 11 33.9
2014-Jul-22 12:15 137 5 gusting 11 33.3
2014-Jul-22 12:05 270 6 gusting 12 33.9
2014-Jul-22 11:45 180 4 gusting 8 33.3
2014-Jul-22 11:25 128 1 gusting 8 32.8
2014-Jul-22 11:15 233 5 gusting 8 32.8
2014-Jul-22 11:05 270 2 gusting 8 32.8
2014-Jul-22 10:55 183 5 gusting 11 32.8
2014-Jul-22 10:45 109 1 gusting 6 32.2
2014-Jul-22 10:35 315 1 gusting 5 32.2
2014-Jul-22 10:15 126 2 gusting 6 31.7
2014-Jul-22 10:05 090 2 gusting 6 31.1
2014-Jul-22 09:55 090 1 gusting 6 30.6
2014-Jul-22 09:45 105 1 gusting 6 30.6
2014-Jul-22 09:35 139 1 gusting 5 30.0
2014-Jul-22 09:25 122 1 gusting 5 30.0
2014-Jul-22 09:15 093 1 gusting 4 29.4
2014-Jul-22 09:05 315 0 gusting 2 28.3
2014-Jul-22 08:45 270 28.3
2014-Jul-22 08:25 113 26.7
2014-Jul-22 08:15 315 1 gusting 5 26.1
2014-Jul-22 08:05 270 2 gusting 6 25.0
2014-Jul-22 07:55 225 1 gusting 6 25.0
2014-Jul-22 07:35 225 2 gusting 6 24.4
2014-Jul-22 07:25 269 1 gusting 5 24.4
2014-Jul-22 07:15 310 2 gusting 5 24.4
2014-Jul-22 07:05 270 0 gusting 2 23.9
2014-Jul-22 06:55 315 2 gusting 4 23.9
2014-Jul-22 06:45 314 0 gusting 4 23.9
2014-Jul-22 06:35 356 0 gusting 2 23.3
2014-Jul-22 06:25 315 1 gusting 2 23.3
2014-Jul-22 06:15 315 0 gusting 2 22.8
2014-Jul-22 06:05 270 0 gusting 1 22.8
2014-Jul-22 05:55 225 0 gusting 1 22.2
2014-Jul-22 05:45 225 0 gusting 1 22.2
2014-Jul-22 05:35 225 0 gusting 2 22.2
2014-Jul-22 05:25 270 1 gusting 2 22.2
2014-Jul-22 05:05 270 1 gusting 2 22.2
2014-Jul-22 04:55 270 1 gusting 2 22.2
2014-Jul-22 04:45 270 1 gusting 2 22.2
2014-Jul-22 04:35 270 1 gusting 2 22.2
2014-Jul-22 04:25 270 0 gusting 2 22.2
2014-Jul-22 04:15 225 1 gusting 5 22.2
2014-Jul-22 04:05 315 0 gusting 0 21.7
2014-Jul-22 03:55 300 21.7
2014-Jul-22 03:45 135 0 gusting 0 22.2
2014-Jul-22 03:35 135 0 gusting 0 22.2
2014-Jul-22 03:25 180 22.2
2014-Jul-22 03:15 180 22.2
2014-Jul-22 03:05 045 22.2
2014-Jul-22 02:55 045 22.2
2014-Jul-22 02:45 045 0 gusting 1 22.8
2014-Jul-22 02:35 045 0 gusting 1 22.8
2014-Jul-22 02:25 045 0 gusting 5 22.8
2014-Jul-22 02:15 090 4 gusting 5 22.8
2014-Jul-22 02:05 090 4 gusting 5 22.8
2014-Jul-22 01:55 090 4 gusting 5 22.8
2014-Jul-22 01:45 090 4 gusting 5 22.8
2014-Jul-22 01:35 090 4 gusting 5 22.8
2014-Jul-22 01:25 090 1 gusting 2 23.3
2014-Jul-22 01:15 090 1 gusting 2 23.3
2014-Jul-22 01:05 045 0 gusting 2 23.3
2014-Jul-22 00:55 045 0 gusting 2 23.3
2014-Jul-22 00:45 045 0 gusting 2 23.3
2014-Jul-22 00:35 045 0 gusting 2 23.3
2014-Jul-22 00:25 045 0 gusting 4 23.3
2014-Jul-22 00:05 090 2 gusting 5 23.3
2014-Jul-21 23:55 080 1 gusting 4 23.3
2014-Jul-21 23:45 090 1 gusting 4 23.9
2014-Jul-21 23:35 090 2 gusting 5 23.9
2014-Jul-21 23:25 094 1 gusting 5 23.9
2014-Jul-21 23:15 090 3 gusting 6 23.9
2014-Jul-21 23:05 090 2 gusting 6 23.9
2014-Jul-21 22:55 094 3 gusting 6 23.9
2014-Jul-21 22:45 057 2 gusting 6 24.4
2014-Jul-21 22:35 090 3 gusting 6 24.4
2014-Jul-21 22:25 090 2 gusting 6 24.4
2014-Jul-21 22:14 064 2 gusting 7 24.4
2014-Jul-21 21:55 090 4 gusting 6 25.0
2014-Jul-21 21:45 058 1 gusting 6 25.0
2014-Jul-21 21:35 090 2 gusting 6 25.0
2014-Jul-21 21:25 090 4 gusting 6 25.0
2014-Jul-21 21:15 090 2 gusting 6 25.6
2014-Jul-21 21:05 090 1 gusting 6 25.6
2014-Jul-21 20:55 066 4 gusting 6 25.6
2014-Jul-21 20:45 064 2 gusting 7 25.6
2014-Jul-21 20:35 135 5 gusting 8 26.1
2014-Jul-21 20:25 090 2 gusting 7 26.1
2014-Jul-21 20:05 180 2 gusting 6 26.7
2014-Jul-21 19:45 180 5 gusting 8 27.2
2014-Jul-21 19:25 135 4 gusting 11 27.8
2014-Jul-21 19:15 180 5 gusting 12 27.8
2014-Jul-21 18:35 213 5 gusting 13 29.4
2014-Jul-21 18:15 149 5 gusting 13 30.0
2014-Jul-21 18:05 180 7 gusting 13 30.0
2014-Jul-21 17:45 180 6 gusting 13 30.6
2014-Jul-21 17:35 180 8 gusting 13 31.1
2014-Jul-21 17:25 135 5 gusting 13 31.1
2014-Jul-21 17:15 180 6 gusting 13 31.1
2014-Jul-21 17:05 174 7 gusting 13 31.1
2014-Jul-21 16:55 182 6 gusting 13 31.1
2014-Jul-21 16:45 180 5 gusting 13 31.7
2014-Jul-21 16:35 180 7 gusting 13 31.7
2014-Jul-21 16:25 165 8 gusting 14 31.7
2014-Jul-21 16:15 180 10 gusting 14 31.7
2014-Jul-21 16:05 180 7 gusting 13 31.7
2014-Jul-21 15:55 208 7 gusting 14 31.7
2014-Jul-21 15:45 171 8 gusting 14 31.7
2014-Jul-21 15:35 166 8 gusting 14 32.2
2014-Jul-21 15:25 135 8 gusting 14 32.2
2014-Jul-21 15:15 212 6 gusting 13 32.2
2014-Jul-21 14:55 135 6 gusting 13 32.2
2014-Jul-21 14:45 090 5 gusting 13 32.2
2014-Jul-21 14:35 153 8 gusting 14 32.2
2014-Jul-21 14:25 180 8 gusting 15 32.2
2014-Jul-21 14:15 166 7 gusting 17 32.2
2014-Jul-21 14:05 180 9 gusting 14 32.2
2014-Jul-21 13:55 180 9 gusting 15 32.2
2014-Jul-21 13:45 172 7 gusting 15 32.2
2014-Jul-21 13:35 146 7 gusting 17 32.2
2014-Jul-21 13:05 180 7 gusting 13 32.2
2014-Jul-21 12:55 188 6 gusting 17 32.8
2014-Jul-21 12:35 240 6 gusting 10 33.3
2014-Jul-21 12:25 292 5 gusting 14 33.3
2014-Jul-21 12:15 015 2 gusting 8 33.3
2014-Jul-21 12:05 270 4 gusting 7 33.3
2014-Jul-21 11:55 225 5 gusting 11 33.9
2014-Jul-21 11:45 176 1 gusting 6 33.3
2014-Jul-21 11:35 037 4 gusting 7 32.8
2014-Jul-21 11:25 260 2 gusting 8 32.8
2014-Jul-21 11:15 315 5 gusting 8 32.8
2014-Jul-21 11:05 090 2 gusting 6 32.8
2014-Jul-21 10:55 157 0 gusting 5 32.2
2014-Jul-21 10:45 251 1 gusting 8 31.7
2014-Jul-21 10:35 270 1 gusting 6 31.7
2014-Jul-21 10:25 225 4 gusting 8 31.7
2014-Jul-21 10:15 214 3 gusting 6 32.2
2014-Jul-21 10:05 158 4 gusting 6 31.7
2014-Jul-21 09:55 088 1 gusting 6 31.7
2014-Jul-21 09:35 315 0 gusting 2 31.1
2014-Jul-21 09:25 044 0 gusting 5 30.6
2014-Jul-21 09:15 045 1 gusting 4 30.6
2014-Jul-21 09:05 315 30.6
2014-Jul-21 08:55 270 30.0
2014-Jul-21 08:45 270 0 gusting 4 28.9
2014-Jul-21 08:35 315 0 gusting 4 28.9
2014-Jul-21 08:25 270 0 gusting 4 28.3
2014-Jul-21 08:15 270 1 gusting 4 28.3
2014-Jul-21 08:05 315 1 gusting 4 27.2
2014-Jul-21 07:55 270 1 gusting 5 27.2
2014-Jul-21 07:35 306 2 gusting 5 26.7
2014-Jul-21 07:25 263 1 gusting 4 26.1
2014-Jul-21 07:15 318 0 gusting 5 26.1
2014-Jul-21 07:05 270 2 gusting 5 25.6
2014-Jul-21 06:55 303 1 gusting 5 25.6
2014-Jul-21 06:35 270 0 gusting 2 25.6
2014-Jul-21 06:25 298 1 gusting 5 25.0
2014-Jul-21 06:15 315 2 gusting 6 25.0
2014-Jul-21 06:05 270 2 gusting 5 24.4
2014-Jul-21 05:55 315 0 gusting 5 23.9
2014-Jul-21 05:45 292 3 gusting 5 23.9
2014-Jul-21 05:35 315 1 gusting 2 23.9
2014-Jul-21 05:25 045 0 gusting 1 23.9
2014-Jul-21 05:05 270 0 gusting 2 24.4
2014-Jul-21 04:55 304 23.9
2014-Jul-21 04:45 270 2 gusting 5 23.9
2014-Jul-21 04:35 302 2 gusting 6 23.9
2014-Jul-21 04:15 180 1 gusting 5 23.9
2014-Jul-21 04:05 270 2 gusting 5 24.4
2014-Jul-21 03:45 283 1 gusting 2 25.0
2014-Jul-21 03:35 300 1 gusting 4 25.0
2014-Jul-21 03:25 270 1 gusting 4 25.0
2014-Jul-21 03:15 282 1 gusting 5 25.0
2014-Jul-21 03:05 270 2 gusting 5 25.0
2014-Jul-21 02:55 267 4 gusting 6 25.0
2014-Jul-21 02:35 270 1 gusting 5 24.4
2014-Jul-21 02:25 225 1 gusting 5 25.0
2014-Jul-21 02:15 225 1 gusting 4 25.0
2014-Jul-21 02:05 315 0 gusting 6 25.6
2014-Jul-21 01:55 315 2 gusting 6 25.6
2014-Jul-21 01:45 270 2 gusting 5 25.6
2014-Jul-21 01:25 245 4 gusting 5 25.6
2014-Jul-21 01:15 270 0 gusting 2 25.6
2014-Jul-21 01:05 315 0 gusting 2 25.6
2014-Jul-21 00:55 267 1 gusting 5 25.6
2014-Jul-21 00:45 229 3 gusting 6 25.6
2014-Jul-21 00:35 225 4 gusting 6 25.6
2014-Jul-21 00:25 180 1 gusting 4 26.1
2014-Jul-21 00:15 225 26.7
2014-Jul-21 00:05 270 27.2
2014-Jul-20 23:55 270 0 gusting 4 27.2
2014-Jul-20 23:45 289 1 gusting 4 27.8
2014-Jul-20 23:35 295 0 gusting 4 27.8
2014-Jul-20 23:25 315 0 gusting 2 27.8
2014-Jul-20 23:05 270 1 gusting 4 28.3